Pagrindinis puslapis
METAR-TAF:

METAR-TAF

Oro uostai :

Tokijas Heliport, Japonija

platuma: 35-38N, ilguma: 139-51E, Aukštis: 5 m

Dabartinis oras

Ataskaita buvo paskelbta 3 valandos ir 49 minutes, ne 07:00 UTC
Vėjas 9 kt iš Šiaurės Vakarų su gūsio iki 19 kt, svyruoja nuo Vakarų ir Rytų/Šiaurės Rytų
Temperatūra 7°C
Drėgmė 93%
Slėgis 1015 hPa
Matomumas: 3000 m
Mažai debesys ne aukštis 400 ft
Su prošvaistėmis ne aukštis 600 ft
Su prošvaistėmis ne aukštis 1500 ft
lietus, rūkana

METAR: RJTI 280700Z 32009G19KT 270V070 3000 -RA BR FEW004 BKN006 BKN015 07/06 Q1015

Laikas: 19:49 (10:49 UTC)


TAF: trūkstamas

Orai ataskaitas ir orų prognozės (METAR, TAF).

turimą stotys yra geltonos ir raudonos taškus žemėlapyje.

Perkelti pele per norėdami pamatyti stoties vardą.

Tada spustelėkite, norėdami matyti oro stebėjimo ir prognozės.

Norėdami pakeisti žemėlapį: spustelėkite ant žalios mygtukų su juodo kryžiaus žemyn,; žalią mygtuką su brūkšneliu, jei norite nutolinti; arba žalių rodyklių gretimoms žemėlapius.


METAR-TAF: